createdAt,value
2018-05-24T00:00:50.202Z,99.90
2018-05-24T00:03:22.123Z,99.90
2018-05-24T00:05:52.822Z,99.90
2018-05-24T00:08:20.846Z,99.90
2018-05-24T00:10:53.485Z,99.90
2018-05-24T00:13:23.482Z,99.90
2018-05-24T00:15:51.530Z,99.90
2018-05-24T00:18:20.574Z,99.90
2018-05-24T00:20:51.279Z,99.90
2018-05-24T00:23:24.802Z,99.90
2018-05-24T00:25:53.586Z,99.90
2018-05-24T00:28:22.391Z,99.90
2018-05-24T00:30:56.653Z,99.90
2018-05-24T00:33:28.706Z,99.90
2018-05-24T00:35:57.657Z,99.90
2018-05-24T00:38:25.677Z,99.90
2018-05-24T00:40:54.688Z,99.90
2018-05-24T00:43:22.774Z,99.90
2018-05-24T00:45:51.564Z,99.90
2018-05-24T00:48:23.708Z,99.90
2018-05-24T00:50:55.353Z,99.90
2018-05-24T00:53:29.129Z,99.90
2018-05-24T00:55:58.160Z,99.90
2018-05-24T00:58:27.165Z,99.90
2018-05-24T01:00:57.001Z,99.90
2018-05-24T01:03:26.969Z,99.90
2018-05-24T01:05:54.994Z,99.90
2018-05-24T01:08:28.448Z,99.90
2018-05-24T01:13:53.661Z,99.90
2018-05-24T01:16:29.809Z,99.90
2018-05-24T01:19:03.616Z,99.90
2018-05-24T01:21:35.569Z,99.90
2018-05-24T01:24:03.620Z,99.90
2018-05-24T01:26:34.924Z,99.90
2018-05-24T01:29:02.965Z,99.90
2018-05-24T01:31:41.865Z,99.90
2018-05-24T01:34:15.793Z,99.90
2018-05-24T01:36:57.697Z,99.90
2018-05-24T01:39:29.513Z,99.90
2018-05-24T01:41:58.578Z,99.90
2018-05-24T01:44:30.849Z,99.90
2018-05-24T01:47:01.641Z,99.90
2018-05-24T01:49:29.657Z,99.90
2018-05-24T01:51:58.477Z,99.90
2018-05-24T01:54:26.501Z,99.90
2018-05-24T01:57:00.525Z,99.90
2018-05-24T01:59:31.249Z,99.90
2018-05-24T02:02:09.245Z,99.90
2018-05-24T02:04:42.246Z,99.90
2018-05-24T02:07:11.073Z,99.90
2018-05-24T02:09:40.094Z,99.90
2018-05-24T02:12:10.122Z,99.90
2018-05-24T02:14:40.049Z,99.90
2018-05-24T02:17:09.049Z,99.90
2018-05-24T02:19:43.573Z,99.90
2018-05-24T02:22:16.333Z,99.90
2018-05-24T02:24:44.765Z,99.90
2018-05-24T02:27:16.997Z,99.90
2018-05-24T02:29:48.845Z,99.90
2018-05-24T02:32:24.251Z,99.90
2018-05-24T02:34:52.309Z,99.90
2018-05-24T02:37:20.329Z,99.90
2018-05-24T02:39:48.353Z,99.90
2018-05-24T02:42:20.361Z,99.90
2018-05-24T02:44:49.341Z,99.90
2018-05-24T02:47:17.374Z,99.90
2018-05-24T02:49:46.333Z,99.90
2018-05-24T02:52:16.105Z,99.90
2018-05-24T02:54:47.298Z,99.90
2018-05-24T02:57:19.953Z,99.90
2018-05-24T02:59:53.554Z,99.90
2018-05-24T03:02:21.578Z,99.90
2018-05-24T03:04:51.541Z,99.90
2018-05-24T03:07:23.921Z,99.90
2018-05-24T03:09:54.642Z,99.90
2018-05-24T03:12:26.302Z,99.90
2018-05-24T03:14:55.285Z,99.90
2018-05-24T03:17:23.313Z,99.90
2018-05-24T03:19:53.281Z,99.90
2018-05-24T03:22:22.062Z,99.90
2018-05-24T03:24:51.062Z,99.90
2018-05-24T03:27:19.081Z,99.90
2018-05-24T03:29:51.801Z,99.90
2018-05-24T03:32:19.853Z,99.90
2018-05-24T03:34:47.894Z,99.90
2018-05-24T03:37:16.829Z,99.90
2018-05-24T03:39:46.833Z,99.90
2018-05-24T03:42:23.081Z,99.90
2018-05-24T03:44:53.045Z,99.90
2018-05-24T03:47:21.872Z,99.90
2018-05-24T03:49:55.621Z,99.90
2018-05-24T03:52:24.581Z,99.90
2018-05-24T03:54:52.622Z,99.90
2018-05-24T03:57:22.589Z,99.90
2018-05-24T04:00:03.160Z,99.90
2018-05-24T04:02:43.784Z,99.90
2018-05-24T04:05:16.604Z,99.90
2018-05-24T04:07:48.173Z,99.90
2018-05-24T04:10:20.834Z,99.90
2018-05-24T04:12:48.885Z,99.90
2018-05-24T04:15:18.928Z,99.90
2018-05-24T04:17:46.961Z,99.90
2018-05-24T04:20:19.477Z,99.90
2018-05-24T04:22:53.800Z,99.90
2018-05-24T04:25:22.617Z,99.90
2018-05-24T04:27:53.916Z,99.90
2018-05-24T04:30:22.949Z,99.90
2018-05-24T04:32:51.709Z,99.90
2018-05-24T04:35:21.497Z,99.90
2018-05-24T04:37:49.548Z,99.90
2018-05-24T04:40:30.010Z,99.90
2018-05-24T04:43:03.072Z,99.90
2018-05-24T04:45:33.079Z,99.90
2018-05-24T04:48:04.692Z,99.90
2018-05-24T04:50:33.688Z,99.90
2018-05-24T04:53:02.677Z,99.90
2018-05-24T04:55:31.337Z,99.90
2018-05-24T04:58:01.267Z,99.90
2018-05-24T05:00:34.380Z,99.90
2018-05-24T05:03:04.368Z,99.90
2018-05-24T05:05:32.381Z,99.90
2018-05-24T05:08:03.076Z,99.90
2018-05-24T05:10:32.065Z,99.90
2018-05-24T05:13:03.836Z,99.90
2018-05-24T05:15:31.857Z,99.90
2018-05-24T05:17:59.872Z,99.90
2018-05-24T05:20:27.908Z,99.90
2018-05-24T05:22:56.924Z,99.90
2018-05-24T05:25:25.931Z,99.90
2018-05-24T05:27:53.956Z,99.90
2018-05-24T05:30:29.160Z,99.90
2018-05-24T05:33:08.320Z,99.90
2018-05-24T05:35:42.432Z,99.90
2018-05-24T05:38:11.515Z,99.90
2018-05-24T05:40:44.136Z,99.90
2018-05-24T05:43:17.949Z,99.90
2018-05-24T05:45:54.377Z,99.90
2018-05-24T05:48:24.076Z,99.90
2018-05-24T05:50:54.021Z,99.90
2018-05-24T05:53:23.026Z,99.90
2018-05-24T05:55:51.957Z,99.90
2018-05-24T05:58:23.268Z,99.90
2018-05-24T06:00:54.917Z,99.90
2018-05-24T06:03:46.608Z,99.90
2018-05-24T06:06:16.370Z,99.90
2018-05-24T06:08:46.364Z,99.90
2018-05-24T06:11:30.873Z,99.90
2018-05-24T06:14:11.485Z,99.90
2018-05-24T06:17:03.589Z,99.90
2018-05-24T06:19:31.625Z,99.90
2018-05-24T06:22:04.133Z,99.90
2018-05-24T06:24:32.141Z,99.90
2018-05-24T06:27:00.381Z,99.90
2018-05-24T06:38:31.220Z,99.90
2018-05-24T06:41:02.373Z,99.90
2018-05-24T06:43:31.325Z,99.90
2018-05-24T06:46:02.803Z,99.90
2018-05-24T06:48:35.657Z,99.90
2018-05-24T06:51:08.302Z,99.90
2018-05-24T06:53:36.361Z,99.90
2018-05-24T06:56:05.976Z,99.90
2018-05-24T06:58:39.307Z,99.90
2018-05-24T07:01:09.584Z,99.90
2018-05-24T07:03:37.605Z,99.90
2018-05-24T07:06:07.590Z,99.90
2018-05-24T07:08:36.944Z,99.90
2018-05-24T07:11:05.052Z,99.90
2018-05-24T07:13:32.988Z,99.90
2018-05-24T07:16:13.656Z,99.90
2018-05-24T07:18:43.656Z,99.90
2018-05-24T07:21:13.665Z,99.90
2018-05-24T07:26:39.936Z,99.90
2018-05-24T07:29:08.881Z,99.90
2018-05-24T07:31:42.545Z,99.90
2018-05-24T07:34:16.532Z,99.90
2018-05-24T07:36:45.481Z,99.90
2018-05-24T07:39:20.401Z,99.90
2018-05-24T07:41:52.760Z,99.90
2018-05-24T07:44:22.764Z,99.90
2018-05-24T07:46:53.528Z,99.90
2018-05-24T07:49:21.556Z,99.90
2018-05-24T07:51:51.568Z,99.90
2018-05-24T07:54:43.096Z,99.90
2018-05-24T07:57:25.100Z,99.90
2018-05-24T07:59:59.740Z,99.90
2018-05-24T08:02:28.696Z,99.90
2018-05-24T08:05:01.182Z,99.90
2018-05-24T08:07:32.240Z,99.90
2018-05-24T08:10:03.832Z,99.90
2018-05-24T08:12:33.788Z,99.90
2018-05-24T08:15:02.712Z,99.90
2018-05-24T08:17:32.837Z,99.90
2018-05-24T08:22:56.491Z,99.90
2018-05-24T08:25:32.936Z,99.90
2018-05-24T08:28:02.964Z,99.90
2018-05-24T08:30:54.228Z,99.90
2018-05-24T08:36:24.496Z,99.90
2018-05-24T08:41:46.786Z,99.70
2018-05-24T08:47:15.954Z,81.80
2018-05-24T08:49:47.008Z,73.40
2018-05-24T09:07:24.564Z,78.90
2018-05-24T09:15:56.376Z,93.40
2018-05-24T09:21:17.472Z,99.90
2018-05-24T09:32:28.172Z,99.90
2018-05-24T09:43:49.820Z,84.90
2018-05-24T09:54:59.463Z,92.40
2018-05-24T09:57:33.773Z,97.70
2018-05-24T10:00:10.204Z,99.90
2018-05-24T10:02:58.512Z,99.90
2018-05-24T10:05:34.004Z,99.90
2018-05-24T10:11:01.968Z,99.90
2018-05-24T10:13:39.015Z,99.90
2018-05-24T10:16:14.599Z,99.90
2018-05-24T10:18:46.927Z,99.90
2018-05-24T10:21:33.346Z,99.90
2018-05-24T10:24:25.652Z,99.90
2018-05-24T10:30:04.875Z,99.90
2018-05-24T10:32:33.959Z,99.90
2018-05-24T10:35:21.126Z,99.90
2018-05-24T10:43:38.476Z,99.90
2018-05-24T10:49:01.807Z,99.90
2018-05-24T10:51:33.675Z,99.90
2018-05-24T10:54:12.887Z,99.90
2018-05-24T10:56:51.863Z,99.90
2018-05-24T11:02:32.743Z,99.90
2018-05-24T11:05:02.771Z,99.90
2018-05-24T11:07:33.151Z,99.90
2018-05-24T11:10:06.883Z,99.90
2018-05-24T11:15:34.519Z,99.90
2018-05-24T11:18:04.555Z,99.90
2018-05-24T11:20:34.507Z,99.90
2018-05-24T11:23:02.863Z,99.90
2018-05-24T11:25:33.847Z,99.90
2018-05-24T11:28:10.223Z,99.90
2018-05-24T11:30:47.282Z,99.90
2018-05-24T11:33:16.458Z,99.90
2018-05-24T11:35:45.400Z,99.90
2018-05-24T11:38:26.535Z,99.90
2018-05-24T11:40:56.587Z,99.90
2018-05-24T11:43:25.728Z,99.90
2018-05-24T11:45:55.708Z,99.90
2018-05-24T11:48:26.016Z,99.90
2018-05-24T11:51:12.754Z,99.90
2018-05-24T11:53:48.946Z,99.90
2018-05-24T11:56:22.262Z,99.90
2018-05-24T11:58:57.703Z,99.90
2018-05-24T12:01:25.775Z,99.90
2018-05-24T12:03:54.746Z,99.90
2018-05-24T12:06:22.770Z,99.90
2018-05-24T12:09:03.511Z,99.90
2018-05-24T12:11:36.385Z,99.90
2018-05-24T12:14:04.627Z,99.90
2018-05-24T12:16:34.602Z,99.90
2018-05-24T12:19:07.215Z,99.90
2018-05-24T12:21:40.578Z,99.90
2018-05-24T12:24:14.246Z,99.90
2018-05-24T12:26:48.864Z,99.90
2018-05-24T12:29:16.939Z,99.90
2018-05-24T12:31:45.942Z,99.90
2018-05-24T12:34:18.194Z,99.90
2018-05-24T12:36:49.222Z,99.90
2018-05-24T12:39:29.066Z,99.90
2018-05-24T12:41:58.850Z,99.90
2018-05-24T12:44:28.815Z,99.90
2018-05-24T12:46:58.802Z,99.90
2018-05-24T12:49:27.798Z,99.90
2018-05-24T12:52:00.294Z,99.90
2018-05-24T12:54:35.899Z,99.90
2018-05-24T12:57:18.706Z,99.90
2018-05-24T12:59:50.114Z,99.90
2018-05-24T13:02:19.258Z,99.90
2018-05-24T13:04:49.906Z,99.90
2018-05-24T13:07:19.944Z,99.90
2018-05-24T13:09:48.976Z,99.90
2018-05-24T13:12:17.726Z,99.90
2018-05-24T13:14:46.713Z,99.90
2018-05-24T13:17:19.274Z,99.90
2018-05-24T13:19:52.378Z,99.90
2018-05-24T13:22:21.362Z,99.90
2018-05-24T13:24:49.367Z,99.90
2018-05-24T13:27:18.166Z,99.90
2018-05-24T13:29:48.846Z,99.90
2018-05-24T13:32:16.866Z,99.90
2018-05-24T13:34:45.666Z,99.90
2018-05-24T13:37:18.698Z,99.90
2018-05-24T13:39:55.242Z,99.90
2018-05-24T13:42:26.854Z,99.90
2018-05-24T13:44:55.991Z,99.90
2018-05-24T13:47:25.918Z,99.90
2018-05-24T13:49:58.003Z,99.90
2018-05-24T13:52:27.667Z,98.20
2018-05-24T13:55:01.342Z,92.00
2018-05-24T13:57:44.334Z,77.20
2018-05-24T14:00:19.913Z,62.00
2018-05-24T14:02:49.706Z,58.30
2018-05-24T14:05:18.682Z,58.10
2018-05-24T14:07:53.330Z,57.30
2018-05-24T14:10:22.086Z,52.50
2018-05-24T14:12:51.118Z,55.00
2018-05-24T14:15:20.843Z,59.70
2018-05-24T14:17:50.614Z,63.10
2018-05-24T14:20:21.346Z,66.00
2018-05-24T14:22:55.314Z,66.00
2018-05-24T14:25:25.257Z,64.50
2018-05-24T14:27:57.119Z,58.80
2018-05-24T14:30:30.114Z,54.90
2018-05-24T14:32:58.114Z,49.90
2018-05-24T14:35:26.885Z,48.30
2018-05-24T14:37:54.903Z,48.20
2018-05-24T14:40:31.082Z,47.30
2018-05-24T14:42:59.089Z,47.20
2018-05-24T14:45:30.186Z,49.60
2018-05-24T14:48:00.134Z,53.50
2018-05-24T14:50:34.773Z,57.10
2018-05-24T14:53:29.598Z,60.60
2018-05-24T14:56:04.050Z,67.50
2018-05-24T14:58:34.006Z,67.40
2018-05-24T15:01:02.029Z,65.20
2018-05-24T15:03:33.710Z,58.10
2018-05-24T15:06:02.122Z,55.50
2018-05-24T15:08:30.310Z,52.90
2018-05-24T15:11:13.258Z,52.30
2018-05-24T15:13:50.206Z,52.10
2018-05-24T15:16:19.170Z,51.30
2018-05-24T15:19:04.982Z,54.70
2018-05-24T15:21:33.930Z,57.40
2018-05-24T15:24:01.951Z,57.60
2018-05-24T15:26:29.953Z,56.20
2018-05-24T15:28:58.971Z,60.30
2018-05-24T15:31:26.985Z,67.40
2018-05-24T15:33:54.993Z,74.20
2018-05-24T15:36:36.041Z,74.00
2018-05-24T15:39:07.318Z,66.50
2018-05-24T15:41:36.322Z,63.40
2018-05-24T15:44:05.313Z,59.30
2018-05-24T15:46:37.674Z,57.50
2018-05-24T15:49:05.762Z,56.20
2018-05-24T15:51:36.923Z,55.60
2018-05-24T15:54:09.413Z,57.60
2018-05-24T15:56:40.405Z,57.50
2018-05-24T15:59:16.029Z,59.30
2018-05-24T16:01:44.053Z,58.40
2018-05-24T16:04:15.801Z,57.50
2018-05-24T16:06:47.633Z,57.50
2018-05-24T16:09:21.153Z,59.00
2018-05-24T16:12:01.389Z,60.00
2018-05-24T16:14:35.221Z,63.00
2018-05-24T16:17:12.257Z,66.30
2018-05-24T16:19:44.745Z,66.30
2018-05-24T16:22:18.633Z,66.10
2018-05-24T16:24:47.673Z,64.10
2018-05-24T16:27:17.681Z,63.40
2018-05-24T16:29:46.650Z,63.30
2018-05-24T16:32:20.737Z,61.10
2018-05-24T16:34:51.845Z,62.30
2018-05-24T16:37:24.717Z,63.40
2018-05-24T16:40:05.258Z,65.30
2018-05-24T16:42:47.505Z,65.20
2018-05-24T16:48:20.334Z,67.60
2018-05-24T16:51:06.562Z,67.20
2018-05-24T16:56:41.830Z,68.10
2018-05-24T17:02:28.597Z,68.50
2018-05-24T17:05:06.130Z,71.70
2018-05-24T17:10:31.469Z,71.80
2018-05-24T17:13:12.685Z,72.50
2018-05-24T17:15:42.454Z,74.60
2018-05-24T17:21:24.986Z,75.40
2018-05-24T17:29:46.146Z,73.80
2018-05-24T17:32:22.170Z,73.80
2018-05-24T17:37:47.209Z,75.30
2018-05-24T17:43:21.889Z,83.10
2018-05-24T17:51:54.904Z,91.20
2018-05-24T17:54:33.869Z,94.70
2018-05-24T17:57:12.716Z,94.70
2018-05-24T18:00:04.722Z,98.40
2018-05-24T18:02:32.760Z,99.80
2018-05-24T18:05:05.605Z,99.90
2018-05-24T18:10:30.420Z,99.90
2018-05-24T18:13:22.009Z,99.90
2018-05-24T18:15:53.697Z,99.90
2018-05-24T18:35:45.749Z,99.90
2018-05-24T18:41:27.277Z,99.90
2018-05-24T18:44:01.321Z,99.90
2018-05-24T18:46:31.117Z,99.90
2018-05-24T18:49:19.749Z,99.90
2018-05-24T18:51:54.761Z,99.90
2018-05-24T18:57:19.690Z,99.90
2018-05-24T19:00:01.905Z,99.90
2018-05-24T19:02:42.944Z,99.90
2018-05-24T19:08:12.732Z,99.90
2018-05-24T19:10:55.549Z,99.90
2018-05-24T19:16:37.989Z,99.90
2018-05-24T19:19:06.929Z,99.90
2018-05-24T19:21:38.685Z,99.90
2018-05-24T19:24:19.825Z,99.90
2018-05-24T19:26:48.917Z,99.90
2018-05-24T19:29:17.081Z,99.90
2018-05-24T19:32:03.052Z,99.90
2018-05-24T19:34:33.001Z,99.90
2018-05-24T19:37:01.037Z,99.90
2018-05-24T19:39:31.745Z,99.90
2018-05-24T19:42:01.754Z,99.90
2018-05-24T19:44:30.741Z,99.90
2018-05-24T19:47:03.741Z,99.90
2018-05-24T19:49:39.449Z,99.90
2018-05-24T19:52:08.473Z,99.90
2018-05-24T19:54:50.801Z,99.90
2018-05-24T19:57:39.161Z,99.90
2018-05-24T20:00:09.153Z,99.90
2018-05-24T20:02:38.129Z,99.90
2018-05-24T20:05:09.777Z,99.90
2018-05-24T20:07:39.812Z,99.90
2018-05-24T20:10:11.697Z,99.90
2018-05-24T20:12:40.493Z,99.90
2018-05-24T20:15:12.821Z,99.90
2018-05-24T20:17:42.849Z,99.90
2018-05-24T20:20:10.905Z,99.90
2018-05-24T20:22:38.937Z,99.90
2018-05-24T20:25:08.700Z,99.90
2018-05-24T20:27:41.204Z,99.90
2018-05-24T20:30:13.248Z,99.90
2018-05-24T20:32:48.125Z,99.90
2018-05-24T20:35:18.084Z,99.90
2018-05-24T20:37:51.175Z,99.90
2018-05-24T20:40:19.185Z,99.90
2018-05-24T20:42:48.223Z,99.90
2018-05-24T20:45:27.443Z,99.90
2018-05-24T20:47:57.475Z,99.90
2018-05-24T20:50:37.049Z,99.90
2018-05-24T20:53:14.887Z,99.90
2018-05-24T20:55:43.923Z,99.90
2018-05-24T20:58:13.747Z,99.90
2018-05-24T21:00:43.524Z,99.90
2018-05-24T21:03:21.291Z,99.90
2018-05-24T21:05:49.331Z,99.90
2018-05-24T21:08:19.307Z,99.90
2018-05-24T21:10:47.327Z,99.90
2018-05-24T21:13:17.324Z,99.90
2018-05-24T21:15:46.139Z,99.90
2018-05-24T21:18:16.115Z,99.90
2018-05-24T21:20:44.139Z,99.90
2018-05-24T21:23:12.167Z,99.90
2018-05-24T21:25:40.975Z,99.90
2018-05-24T21:28:08.992Z,99.90
2018-05-24T21:30:43.343Z,99.90
2018-05-24T21:33:16.975Z,99.90
2018-05-24T21:35:45.761Z,99.90
2018-05-24T21:38:35.663Z,99.90
2018-05-24T21:41:03.707Z,99.90
2018-05-24T21:43:31.738Z,99.90
2018-05-24T21:45:59.763Z,99.90
2018-05-24T21:48:35.635Z,99.90
2018-05-24T21:51:03.673Z,99.90
2018-05-24T21:53:39.340Z,99.90
2018-05-24T21:56:09.268Z,99.90
2018-05-24T21:58:40.735Z,99.90
2018-05-24T22:01:08.791Z,99.90
2018-05-24T22:03:40.379Z,99.90
2018-05-24T22:06:10.188Z,99.90
2018-05-24T22:08:40.928Z,99.90
2018-05-24T22:11:09.724Z,99.90
2018-05-24T22:13:39.504Z,99.90
2018-05-24T22:16:07.540Z,99.90
2018-05-24T22:18:39.960Z,99.90
2018-05-24T22:21:26.409Z,99.90
2018-05-24T22:24:05.752Z,99.90
2018-05-24T22:29:34.708Z,99.90
2018-05-24T22:35:06.428Z,99.90
2018-05-24T22:38:00.236Z,99.90
2018-05-24T22:40:40.688Z,99.90
2018-05-24T22:43:19.823Z,99.90
2018-05-24T22:45:56.808Z,99.90
2018-05-24T22:48:36.323Z,99.90
2018-05-24T22:54:02.395Z,99.90
2018-05-24T22:56:30.407Z,99.90
2018-05-24T22:59:00.375Z,99.90
2018-05-24T23:01:29.367Z,99.90
2018-05-24T23:03:57.399Z,99.90
2018-05-24T23:06:25.427Z,99.90
2018-05-24T23:08:54.351Z,99.90
2018-05-24T23:11:25.755Z,99.90
2018-05-24T23:13:58.140Z,99.90
2018-05-24T23:16:31.317Z,99.90
2018-05-24T23:19:16.831Z,99.90
2018-05-24T23:21:57.827Z,99.90
2018-05-24T23:24:33.880Z,99.90
2018-05-24T23:27:16.396Z,99.90
2018-05-24T23:32:40.428Z,99.90
2018-05-24T23:35:30.275Z,99.90
2018-05-24T23:38:08.119Z,99.90
2018-05-24T23:40:39.255Z,99.90
2018-05-24T23:43:11.400Z,99.90
2018-05-24T23:45:39.427Z,99.90
2018-05-24T23:48:07.460Z,99.90
2018-05-24T23:50:38.192Z,99.90
2018-05-24T23:56:24.188Z,99.90
2018-05-24T23:58:54.224Z,99.90
